This is the latest recevied weather packets stored in our database for station/object N7CW. If no packets are shown the sender has not sent any weather packets the latest 10 day(s).
| Time | Temp. | Humidity | Pressure | Rain* | Wind** | Luminosity | Snow |
|---|---|---|---|---|---|---|---|
| 1777982477 | 7.22° C | 59% | 1012 hPa | 0 mm | - | 0 W/m² | - |
| 1777982172 | 6.67° C | 62% | 1012.1 hPa | 0 mm | - | 0 W/m² | - |
| 1777981869 | 6.67° C | 63% | 1012.2 hPa | 0 mm | - | 0 W/m² | - |
| 1777981566 | 7.22° C | 61% | 1012.1 hPa | 0 mm | - | 0 W/m² | - |
| 1777981263 | 7.22° C | 60% | 1012.2 hPa | 0 mm | - | 0 W/m² | - |
| 1777980959 | 7.22° C | 62% | 1012.5 hPa | 0 mm | - | 0 W/m² | - |
| 1777980655 | 7.22° C | 61% | 1012.5 hPa | 0 mm | - | 0 W/m² | - |
| 1777980352 | 7.22° C | 61% | 1012.4 hPa | 0 mm | - | 0 W/m² | - |
| 1777980051 | 7.22° C | 61% | 1012.4 hPa | 0 mm | - | 0 W/m² | - |
| 1777979749 | 7.22° C | 61% | 1012.2 hPa | 0 mm | - | 0 W/m² | - |
| 1777979446 | 7.22° C | 61% | 1012.2 hPa | 0 mm | - | 0 W/m² | - |
| 1777979142 | 6.67° C | 64% | 1012.4 hPa | 0 mm | - | 0 W/m² | - |
| 1777978839 | 6.67° C | 65% | 1012.5 hPa | 0 mm | - | 0 W/m² | - |
| 1777978536 | 5.56° C | 68% | 1012.6 hPa | 0 mm | - | 0 W/m² | - |
| 1777978231 | 6.11° C | 67% | 1012.4 hPa | 0 mm | - | 0 W/m² | - |
| 1777977929 | 6.11° C | 67% | 1012.5 hPa | 0 mm | - | 0 W/m² | - |
| 1777977626 | 5.56° C | 68% | 1012.8 hPa | 0 mm | - | 0 W/m² | - |
| 1777977323 | 6.11° C | 67% | 1012.8 hPa | 0 mm | - | 0 W/m² | - |
| 1777977021 | 6.67° C | 67% | 1012.9 hPa | 0 mm | - | 0 W/m² | - |
| 1777976718 | 6.11° C | 67% | 1012.8 hPa | 0 mm | - | 0 W/m² | - |
| 1777976415 | 6.11° C | 66% | 1013.1 hPa | 0 mm | - | 0 W/m² | - |
| 1777976114 | 6.11° C | 68% | 1013.1 hPa | 0 mm | - | 0 W/m² | - |
| 1777975809 | 6.67° C | 65% | 1012.8 hPa | 0 mm | - | 0 W/m² | - |
| 1777975507 | 6.67° C | 65% | 1013.1 hPa | 0 mm | - | 0 W/m² | - |
| 1777975203 | 6.11° C | 67% | 1013.2 hPa | 0 mm | - | 0 W/m² | - |
* Rain latest hour (hover to see other rain measurements)
** Current wind speed in m/s (hover to see current wind gust speed)